createdAt,value
2022-09-15T00:01:51.365Z,19.14
2022-09-15T00:04:17.851Z,19.10
2022-09-15T00:06:44.276Z,19.21
2022-09-15T00:09:10.766Z,19.28
2022-09-15T00:11:38.058Z,19.15
2022-09-15T00:14:06.858Z,19.10
2022-09-15T00:16:33.598Z,19.24
2022-09-15T00:19:00.937Z,19.16
2022-09-15T00:21:31.307Z,19.13
2022-09-15T00:23:59.588Z,19.09
2022-09-15T00:26:27.562Z,18.97
2022-09-15T00:28:54.790Z,19.00
2022-09-15T00:31:22.958Z,19.11
2022-09-15T00:33:51.428Z,18.97
2022-09-15T00:36:18.611Z,18.89
2022-09-15T00:38:45.491Z,19.09
2022-09-15T00:41:16.243Z,19.01
2022-09-15T00:43:49.900Z,18.88
2022-09-15T00:46:20.296Z,18.86
2022-09-15T00:49:07.138Z,18.90
2022-09-15T00:51:48.055Z,18.85
2022-09-15T00:54:19.962Z,18.76
2022-09-15T00:56:49.041Z,18.73
2022-09-15T00:59:21.107Z,18.60
2022-09-15T01:01:55.243Z,18.50
2022-09-15T01:04:21.818Z,18.63
2022-09-15T01:06:53.874Z,18.58
2022-09-15T01:09:36.220Z,18.50
2022-09-15T01:12:03.947Z,18.42
2022-09-15T01:14:30.471Z,18.34
2022-09-15T01:17:06.868Z,18.47
2022-09-15T01:19:33.381Z,18.53
2022-09-15T01:22:06.141Z,18.44
2022-09-15T01:24:44.081Z,18.53
2022-09-15T01:27:43.519Z,18.69
2022-09-15T01:30:15.915Z,18.51
2022-09-15T01:33:04.146Z,18.57
2022-09-15T01:36:04.064Z,18.55
2022-09-15T01:38:42.517Z,18.41
2022-09-15T01:41:38.862Z,18.53
2022-09-15T01:44:13.121Z,18.56
2022-09-15T01:46:47.055Z,18.53
2022-09-15T01:49:19.419Z,18.44
2022-09-15T01:51:50.299Z,18.39
2022-09-15T01:54:19.947Z,18.49
2022-09-15T01:56:46.827Z,18.50
2022-09-15T01:59:13.365Z,18.60
2022-09-15T02:01:50.208Z,18.72
2022-09-15T02:04:38.576Z,18.63
2022-09-15T02:07:20.624Z,18.60
2022-09-15T02:10:05.413Z,18.79
2022-09-15T02:13:11.280Z,18.93
2022-09-15T02:15:42.830Z,18.90
2022-09-15T02:18:14.200Z,18.87
2022-09-15T02:20:53.597Z,18.88
2022-09-15T02:23:26.251Z,18.75
2022-09-15T02:25:58.133Z,18.75
2022-09-15T02:28:30.102Z,18.69
2022-09-15T02:30:59.175Z,18.64
2022-09-15T02:33:32.507Z,18.64
2022-09-15T02:36:00.066Z,18.63
2022-09-15T02:38:30.105Z,18.52
2022-09-15T02:40:57.103Z,18.53
2022-09-15T02:43:23.622Z,18.47
2022-09-15T02:45:50.802Z,18.43
2022-09-15T02:48:17.639Z,18.55
2022-09-15T02:50:44.061Z,18.63
2022-09-15T02:53:10.495Z,18.65
2022-09-15T02:55:37.041Z,18.61
2022-09-15T02:58:03.622Z,18.65
2022-09-15T03:00:31.134Z,18.54
2022-09-15T03:02:58.342Z,18.41
2022-09-15T03:05:27.957Z,18.43
2022-09-15T03:07:55.673Z,18.36
2022-09-15T03:10:24.030Z,18.24
2022-09-15T03:12:53.065Z,18.37
2022-09-15T03:15:22.401Z,18.32
2022-09-15T03:17:49.651Z,18.39
2022-09-15T03:20:21.590Z,18.51
2022-09-15T03:22:49.534Z,18.53
2022-09-15T03:25:17.596Z,18.55
2022-09-15T03:27:44.095Z,18.47
2022-09-15T03:30:11.634Z,18.42
2022-09-15T03:32:38.204Z,18.39
2022-09-15T03:35:06.075Z,18.34
2022-09-15T03:37:32.921Z,18.34
2022-09-15T03:39:59.610Z,18.23
2022-09-15T03:42:26.202Z,18.20
2022-09-15T03:44:53.002Z,18.17
2022-09-15T03:47:19.446Z,18.04
2022-09-15T03:49:45.858Z,18.07
2022-09-15T03:52:12.282Z,18.01
2022-09-15T03:54:38.687Z,18.13
2022-09-15T03:57:05.190Z,18.29
2022-09-15T03:59:31.616Z,18.38
2022-09-15T04:01:58.124Z,18.38
2022-09-15T04:04:24.610Z,18.45
2022-09-15T04:06:51.011Z,18.47
2022-09-15T04:09:18.591Z,18.35
2022-09-15T04:11:46.724Z,18.35
2022-09-15T04:14:13.157Z,18.34
2022-09-15T04:16:39.627Z,18.17
2022-09-15T04:19:06.109Z,18.07
2022-09-15T04:21:32.601Z,18.00
2022-09-15T04:23:59.046Z,18.17
2022-09-15T04:26:33.733Z,18.12
2022-09-15T04:29:04.298Z,18.09
2022-09-15T04:31:32.425Z,18.14
2022-09-15T04:33:59.436Z,18.11
2022-09-15T04:36:28.354Z,18.30
2022-09-15T04:38:56.067Z,18.24
2022-09-15T04:41:23.774Z,18.21
2022-09-15T04:43:50.510Z,18.13
2022-09-15T04:46:18.540Z,18.28
2022-09-15T04:48:46.188Z,18.23
2022-09-15T04:51:16.507Z,18.09
2022-09-15T04:53:43.645Z,18.24
2022-09-15T04:56:12.960Z,18.16
2022-09-15T04:58:50.967Z,18.27
2022-09-15T05:01:20.122Z,18.30
2022-09-15T05:03:47.550Z,18.29
2022-09-15T05:06:16.478Z,18.28
2022-09-15T05:08:43.591Z,18.41
2022-09-15T05:11:12.153Z,18.25
2022-09-15T05:13:40.373Z,18.40
2022-09-15T05:16:12.328Z,18.40
2022-09-15T05:18:40.348Z,18.24
2022-09-15T05:21:08.308Z,18.17
2022-09-15T05:23:35.560Z,18.17
2022-09-15T05:26:05.360Z,18.28
2022-09-15T05:28:33.933Z,18.36
2022-09-15T05:31:00.476Z,18.46
2022-09-15T05:33:27.338Z,18.47
2022-09-15T05:35:59.414Z,18.47
2022-09-15T05:38:28.236Z,18.49
2022-09-15T05:40:54.914Z,18.50
2022-09-15T05:43:21.479Z,18.62
2022-09-15T05:45:55.056Z,18.70
2022-09-15T05:48:21.863Z,18.76
2022-09-15T05:50:50.547Z,18.75
2022-09-15T05:53:17.275Z,18.64
2022-09-15T05:55:44.024Z,18.69
2022-09-15T05:58:11.281Z,18.79
2022-09-15T06:00:38.197Z,18.82
2022-09-15T06:03:04.653Z,18.80
2022-09-15T06:05:31.121Z,18.73
2022-09-15T06:07:57.542Z,18.68
2022-09-15T06:10:25.043Z,18.70
2022-09-15T06:12:54.783Z,18.75
2022-09-15T06:15:22.135Z,18.61
2022-09-15T06:17:48.724Z,18.78
2022-09-15T06:20:15.610Z,18.86
2022-09-15T06:22:42.063Z,18.88
2022-09-15T06:25:08.932Z,18.84
2022-09-15T06:27:35.346Z,18.80
2022-09-15T06:30:01.763Z,18.80
2022-09-15T06:32:28.195Z,18.80
2022-09-15T06:34:54.622Z,18.74
2022-09-15T06:37:21.529Z,18.75
2022-09-15T06:39:47.959Z,18.68
2022-09-15T06:42:14.351Z,18.71
2022-09-15T06:44:40.765Z,18.75
2022-09-15T06:47:07.401Z,18.70
2022-09-15T06:49:33.790Z,18.77
2022-09-15T06:52:02.467Z,18.74
2022-09-15T06:54:28.955Z,18.68
2022-09-15T06:56:55.450Z,18.71
2022-09-15T06:59:23.903Z,18.70
2022-09-15T07:01:54.619Z,18.62
2022-09-15T07:04:21.814Z,18.62
2022-09-15T07:06:48.816Z,18.72
2022-09-15T07:09:15.267Z,18.73
2022-09-15T07:11:41.705Z,18.73
2022-09-15T07:14:08.260Z,18.74
2022-09-15T07:16:34.787Z,18.71
2022-09-15T07:19:03.466Z,18.77
2022-09-15T07:21:29.884Z,18.76
2022-09-15T07:23:57.671Z,18.76
2022-09-15T07:26:26.585Z,18.73
2022-09-15T07:29:05.908Z,18.78
2022-09-15T07:31:34.575Z,18.63
2022-09-15T07:34:02.221Z,18.72
2022-09-15T07:36:29.799Z,18.65
2022-09-15T07:38:56.358Z,18.67
2022-09-15T07:41:25.479Z,18.73
2022-09-15T07:43:54.271Z,18.81
2022-09-15T07:46:22.204Z,18.80
2022-09-15T07:48:51.182Z,18.80
2022-09-15T07:51:18.075Z,18.82
2022-09-15T07:53:46.077Z,18.80
2022-09-15T07:56:12.913Z,18.90
2022-09-15T07:58:39.395Z,19.08
2022-09-15T08:01:08.158Z,19.23
2022-09-15T08:03:34.697Z,19.34
2022-09-15T08:06:02.381Z,19.58
2022-09-15T08:08:29.085Z,19.67
2022-09-15T08:10:55.791Z,19.77
2022-09-15T08:13:22.551Z,19.61
2022-09-15T08:15:49.064Z,19.77
2022-09-15T08:18:15.898Z,19.84
2022-09-15T08:20:43.165Z,20.02
2022-09-15T08:23:11.207Z,20.03
2022-09-15T08:25:40.460Z,20.13
2022-09-15T08:28:06.934Z,20.16
2022-09-15T08:30:33.378Z,20.30
2022-09-15T08:32:59.801Z,20.55
2022-09-15T08:35:26.389Z,20.66
2022-09-15T08:37:55.158Z,20.88
2022-09-15T08:40:26.805Z,20.97
2022-09-15T08:42:57.894Z,20.98
2022-09-15T08:45:27.776Z,21.02
2022-09-15T08:48:01.411Z,20.95
2022-09-15T08:50:49.997Z,20.93
2022-09-15T08:53:31.021Z,21.03
2022-09-15T08:56:05.415Z,21.19
2022-09-15T08:58:37.669Z,21.21
2022-09-15T09:01:17.464Z,21.43
2022-09-15T09:04:17.941Z,21.53
2022-09-15T09:07:09.520Z,21.38
2022-09-15T09:10:00.794Z,21.55
2022-09-15T09:12:45.597Z,21.57
2022-09-15T09:15:37.087Z,21.81
2022-09-15T09:18:38.808Z,21.61
2022-09-15T09:21:17.150Z,21.77
2022-09-15T09:24:15.088Z,22.01
2022-09-15T09:26:42.024Z,21.83
2022-09-15T09:29:16.801Z,22.11
2022-09-15T09:31:45.662Z,22.29
2022-09-15T09:34:18.155Z,22.25
2022-09-15T09:36:44.585Z,22.33
2022-09-15T09:39:15.252Z,22.22
2022-09-15T09:41:42.408Z,22.00
2022-09-15T09:44:14.548Z,21.76
2022-09-15T09:46:41.874Z,21.55
2022-09-15T09:49:19.067Z,21.24
2022-09-15T09:51:59.958Z,21.00
2022-09-15T09:54:28.678Z,20.75
2022-09-15T09:56:57.154Z,20.73
2022-09-15T09:59:46.254Z,20.80
2022-09-15T10:02:23.235Z,20.80
2022-09-15T10:04:51.130Z,20.91
2022-09-15T10:07:24.423Z,20.92
2022-09-15T10:09:54.893Z,21.05
2022-09-15T10:12:33.211Z,20.94
2022-09-15T10:15:02.885Z,21.05
2022-09-15T10:17:43.930Z,21.08
2022-09-15T10:20:35.625Z,21.21
2022-09-15T10:23:17.581Z,21.17
2022-09-15T10:25:58.672Z,21.13
2022-09-15T10:28:27.034Z,21.15
2022-09-15T10:31:04.897Z,21.15
2022-09-15T10:33:41.851Z,20.94
2022-09-15T10:36:17.695Z,20.80
2022-09-15T10:38:54.414Z,20.85
2022-09-15T10:41:27.203Z,20.65
2022-09-15T10:44:18.678Z,20.68
2022-09-15T10:47:03.664Z,20.71
2022-09-15T10:49:39.019Z,20.58
2022-09-15T10:52:35.428Z,20.52
2022-09-15T10:55:42.139Z,20.46
2022-09-15T10:58:32.193Z,20.47
2022-09-15T11:01:04.013Z,20.80
2022-09-15T11:04:05.014Z,21.12
2022-09-15T11:06:59.135Z,21.35
2022-09-15T11:09:34.631Z,21.27
2022-09-15T11:12:16.836Z,21.35
2022-09-15T11:15:14.752Z,21.42
2022-09-15T11:18:07.814Z,21.84
2022-09-15T11:21:10.904Z,22.00
2022-09-15T11:23:50.231Z,22.06
2022-09-15T11:26:31.321Z,21.91
2022-09-15T11:29:05.577Z,21.81
2022-09-15T11:31:42.559Z,21.56
2022-09-15T11:34:22.762Z,21.58
2022-09-15T11:37:24.082Z,21.89
2022-09-15T11:40:17.399Z,22.30
2022-09-15T11:42:44.051Z,22.42
2022-09-15T11:45:18.235Z,22.78
2022-09-15T11:47:50.409Z,23.13
2022-09-15T11:50:30.575Z,23.36
2022-09-15T11:53:16.989Z,23.09
2022-09-15T11:55:52.406Z,22.79
2022-09-15T11:58:27.816Z,22.40
2022-09-15T12:01:16.350Z,22.38
2022-09-15T12:04:12.771Z,22.22
2022-09-15T12:06:51.178Z,22.02
2022-09-15T12:09:19.825Z,22.06
2022-09-15T12:11:49.080Z,22.22
2022-09-15T12:14:37.474Z,22.36
2022-09-15T12:17:11.285Z,22.79
2022-09-15T12:19:37.685Z,23.34
2022-09-15T12:22:29.091Z,23.44
2022-09-15T12:25:01.274Z,23.47
2022-09-15T12:27:28.384Z,23.35
2022-09-15T12:29:57.424Z,23.29
2022-09-15T12:32:34.919Z,23.01
2022-09-15T12:35:16.422Z,22.63
2022-09-15T12:38:03.131Z,22.31
2022-09-15T12:40:41.857Z,22.01
2022-09-15T12:43:11.531Z,21.88
2022-09-15T12:45:39.630Z,21.88
2022-09-15T12:48:20.357Z,21.88
2022-09-15T12:51:10.387Z,22.08
2022-09-15T12:53:50.725Z,22.13
2022-09-15T12:56:26.089Z,22.20
2022-09-15T12:58:54.261Z,22.29
2022-09-15T13:01:23.603Z,22.62
2022-09-15T13:03:50.151Z,22.56
2022-09-15T13:06:27.648Z,22.20
2022-09-15T13:09:01.347Z,22.05
2022-09-15T13:11:31.819Z,22.24
2022-09-15T13:14:06.609Z,22.26
2022-09-15T13:16:48.063Z,22.26
2022-09-15T13:19:44.425Z,22.53
2022-09-15T13:22:10.770Z,22.61
2022-09-15T13:25:07.226Z,22.49
2022-09-15T13:27:45.617Z,22.41
2022-09-15T13:30:24.192Z,22.19
2022-09-15T13:35:02.146Z,22.01
2022-09-15T13:39:52.955Z,21.85
2022-09-15T13:42:25.512Z,21.84
2022-09-15T13:45:20.995Z,21.85
2022-09-15T13:47:51.895Z,21.94
2022-09-15T13:50:24.806Z,22.02
2022-09-15T13:53:21.656Z,22.06
2022-09-15T13:55:48.476Z,21.92
2022-09-15T14:01:07.446Z,21.93
2022-09-15T14:03:39.552Z,21.82
2022-09-15T14:08:39.371Z,21.51
2022-09-15T14:11:09.989Z,21.36
2022-09-15T14:13:41.430Z,21.35
2022-09-15T14:16:24.099Z,21.29
2022-09-15T14:18:53.997Z,21.34
2022-09-15T14:21:23.113Z,21.30
2022-09-15T14:23:51.533Z,21.33
2022-09-15T14:26:29.679Z,21.37
2022-09-15T14:29:02.477Z,21.40
2022-09-15T14:31:30.417Z,21.41
2022-09-15T14:33:57.606Z,21.52
2022-09-15T14:36:42.300Z,21.62
2022-09-15T14:39:11.638Z,21.70
2022-09-15T14:41:41.417Z,21.67
2022-09-15T14:47:38.728Z,21.35
2022-09-15T14:50:12.218Z,21.07
2022-09-15T14:52:42.481Z,20.81
2022-09-15T14:55:18.985Z,20.88
2022-09-15T14:57:54.526Z,20.85
2022-09-15T15:00:25.139Z,20.78
2022-09-15T15:03:19.053Z,20.78
2022-09-15T15:05:54.684Z,20.63
2022-09-15T15:08:57.950Z,20.37
2022-09-15T15:11:24.798Z,20.19
2022-09-15T15:13:52.748Z,20.06
2022-09-15T15:16:25.499Z,20.11
2022-09-15T15:18:53.350Z,20.18
2022-09-15T15:21:36.256Z,20.07
2022-09-15T15:24:09.990Z,20.12
2022-09-15T15:26:38.545Z,20.10
2022-09-15T15:29:09.145Z,20.03
2022-09-15T15:31:40.007Z,20.15
2022-09-15T15:34:24.500Z,20.13
2022-09-15T15:36:50.969Z,20.14
2022-09-15T15:39:24.951Z,20.14
2022-09-15T15:42:02.192Z,20.14
2022-09-15T15:44:29.953Z,20.12
2022-09-15T15:47:23.552Z,20.01
2022-09-15T15:50:14.716Z,20.10
2022-09-15T15:52:37.955Z,20.00
2022-09-15T15:55:05.438Z,19.95
2022-09-15T15:57:38.894Z,20.00
2022-09-15T16:00:25.770Z,19.95
2022-09-15T16:02:53.160Z,19.99
2022-09-15T16:05:22.117Z,19.98
2022-09-15T16:07:50.991Z,20.03
2022-09-15T16:10:20.957Z,20.05
2022-09-15T16:12:48.088Z,19.86
2022-09-15T16:15:20.375Z,19.85
2022-09-15T16:17:48.034Z,19.88
2022-09-15T16:20:16.043Z,19.89
2022-09-15T16:22:43.329Z,19.81
2022-09-15T16:25:30.866Z,19.54
2022-09-15T16:27:57.292Z,19.40
2022-09-15T16:30:23.761Z,19.44
2022-09-15T16:32:50.274Z,19.30
2022-09-15T16:35:35.031Z,19.31
2022-09-15T16:38:01.578Z,19.26
2022-09-15T16:40:28.475Z,19.34
2022-09-15T16:42:55.029Z,19.32
2022-09-15T16:45:38.061Z,19.34
2022-09-15T16:48:07.545Z,19.31
2022-09-15T16:50:34.022Z,19.30
2022-09-15T16:53:00.485Z,19.34
2022-09-15T16:55:39.092Z,19.30
2022-09-15T16:58:06.323Z,19.37
2022-09-15T17:00:37.836Z,19.29
2022-09-15T17:03:05.742Z,19.18
2022-09-15T17:05:40.015Z,19.18
2022-09-15T17:08:08.238Z,19.18
2022-09-15T17:10:35.550Z,19.15
2022-09-15T17:13:02.372Z,19.16
2022-09-15T17:15:31.726Z,19.30
2022-09-15T17:17:58.159Z,19.15
2022-09-15T17:20:25.320Z,19.06
2022-09-15T17:22:53.006Z,19.09
2022-09-15T17:25:29.403Z,19.11
2022-09-15T17:27:57.547Z,19.09
2022-09-15T17:30:30.394Z,19.07
2022-09-15T17:33:10.366Z,19.06
2022-09-15T17:35:37.743Z,19.08
2022-09-15T17:38:05.880Z,18.97
2022-09-15T17:40:33.505Z,18.84
2022-09-15T17:43:03.346Z,18.81
2022-09-15T17:45:36.761Z,18.81
2022-09-15T17:48:06.275Z,18.88
2022-09-15T17:50:34.322Z,18.91
2022-09-15T17:53:00.919Z,18.78
2022-09-15T17:55:30.420Z,18.87
2022-09-15T17:57:59.830Z,18.79
2022-09-15T18:00:29.272Z,18.78
2022-09-15T18:02:58.124Z,18.71
2022-09-15T18:05:36.486Z,18.75
2022-09-15T18:08:05.133Z,18.80
2022-09-15T18:10:33.927Z,18.84
2022-09-15T18:13:01.574Z,18.81
2022-09-15T18:15:31.661Z,18.79
2022-09-15T18:18:02.795Z,18.76
2022-09-15T18:20:32.413Z,18.71
2022-09-15T18:23:00.062Z,18.82
2022-09-15T18:25:30.913Z,18.68
2022-09-15T18:27:58.847Z,18.66
2022-09-15T18:30:28.005Z,18.58
2022-09-15T18:32:54.488Z,18.53
2022-09-15T18:35:21.741Z,18.54
2022-09-15T18:37:49.788Z,18.54
2022-09-15T18:40:18.203Z,18.51
2022-09-15T18:42:45.571Z,18.47
2022-09-15T18:45:14.435Z,18.50
2022-09-15T18:47:43.676Z,18.50
2022-09-15T18:50:12.687Z,18.47
2022-09-15T18:52:40.893Z,18.51
2022-09-15T18:55:09.620Z,18.55
2022-09-15T18:57:37.512Z,18.55
2022-09-15T19:00:07.544Z,18.49
2022-09-15T19:02:34.254Z,18.49
2022-09-15T19:05:01.057Z,18.56
2022-09-15T19:07:28.629Z,18.50
2022-09-15T19:09:56.828Z,18.45
2022-09-15T19:12:23.630Z,18.46
2022-09-15T19:14:50.084Z,18.59
2022-09-15T19:17:16.897Z,18.64
2022-09-15T19:19:43.541Z,18.69
2022-09-15T19:22:10.372Z,18.75
2022-09-15T19:24:37.091Z,18.70
2022-09-15T19:27:05.486Z,18.62
2022-09-15T19:29:34.820Z,18.60
2022-09-15T19:32:04.033Z,18.60
2022-09-15T19:34:30.709Z,18.55
2022-09-15T19:36:57.302Z,18.51
2022-09-15T19:39:23.797Z,18.48
2022-09-15T19:41:50.441Z,18.57
2022-09-15T19:44:17.173Z,18.66
2022-09-15T19:46:43.702Z,18.65
2022-09-15T19:49:10.376Z,18.58
2022-09-15T19:51:37.109Z,18.53
2022-09-15T19:54:06.959Z,18.50
2022-09-15T19:56:34.462Z,18.51
2022-09-15T19:59:01.847Z,18.50
2022-09-15T20:01:32.522Z,18.43
2022-09-15T20:06:43.361Z,18.43
2022-09-15T20:09:10.421Z,18.38
2022-09-15T20:11:37.008Z,18.38
2022-09-15T20:14:05.737Z,18.30
2022-09-15T20:16:32.617Z,18.31
2022-09-15T20:18:58.970Z,18.30
2022-09-15T20:21:49.224Z,18.25
2022-09-15T20:24:16.693Z,18.27
2022-09-15T20:26:43.193Z,18.26
2022-09-15T20:29:10.492Z,18.31
2022-09-15T20:31:36.987Z,18.23
2022-09-15T20:34:03.401Z,18.18
2022-09-15T20:36:33.846Z,18.33
2022-09-15T20:39:03.195Z,18.34
2022-09-15T20:41:31.779Z,18.22
2022-09-15T20:43:58.226Z,18.23
2022-09-15T20:46:25.234Z,18.21
2022-09-15T20:48:52.558Z,18.20
2022-09-15T20:51:25.544Z,18.11
2022-09-15T20:53:53.922Z,18.20
2022-09-15T20:56:24.910Z,18.22
2022-09-15T20:58:53.068Z,18.25
2022-09-15T21:01:22.797Z,18.25
2022-09-15T21:03:49.899Z,18.23
2022-09-15T21:06:21.585Z,18.24
2022-09-15T21:08:49.693Z,18.22
2022-09-15T21:11:17.545Z,18.21
2022-09-15T21:13:44.288Z,18.16
2022-09-15T21:16:14.567Z,18.09
2022-09-15T21:18:42.240Z,18.15
2022-09-15T21:21:20.750Z,18.12
2022-09-15T21:23:54.756Z,18.07
2022-09-15T21:26:26.701Z,18.11
2022-09-15T21:28:54.459Z,18.11
2022-09-15T21:31:29.981Z,18.08
2022-09-15T21:33:57.185Z,18.14
2022-09-15T21:36:27.529Z,18.14
2022-09-15T21:38:56.132Z,18.11
2022-09-15T21:41:26.035Z,18.04
2022-09-15T21:43:54.854Z,18.12
2022-09-15T21:46:23.906Z,18.12
2022-09-15T21:48:50.365Z,18.03
2022-09-15T21:51:23.492Z,17.95
2022-09-15T21:53:52.593Z,17.98
2022-09-15T21:56:19.423Z,18.05
2022-09-15T21:58:45.923Z,17.92
2022-09-15T22:01:21.712Z,17.98
2022-09-15T22:03:53.240Z,18.01
2022-09-15T22:06:21.773Z,17.93
2022-09-15T22:08:48.437Z,17.95
2022-09-15T22:11:15.029Z,17.97
2022-09-15T22:13:43.728Z,17.98
2022-09-15T22:16:18.561Z,18.00
2022-09-15T22:18:45.542Z,18.00
2022-09-15T22:21:14.905Z,18.07
2022-09-15T22:23:42.998Z,18.03
2022-09-15T22:26:15.521Z,18.03
2022-09-15T22:28:42.481Z,18.07
2022-09-15T22:31:11.137Z,18.08
2022-09-15T22:33:40.888Z,18.02
2022-09-15T22:36:11.856Z,18.04
2022-09-15T22:38:38.715Z,18.05
2022-09-15T22:41:07.004Z,18.11
2022-09-15T22:43:33.659Z,18.02
2022-09-15T22:46:00.240Z,18.00
2022-09-15T22:48:27.075Z,18.01
2022-09-15T22:50:53.500Z,18.00
2022-09-15T22:53:20.027Z,18.02
2022-09-15T22:55:46.487Z,18.04
2022-09-15T22:58:12.938Z,18.08
2022-09-15T23:00:39.447Z,18.07
2022-09-15T23:03:07.143Z,18.11
2022-09-15T23:05:34.442Z,18.02
2022-09-15T23:08:01.169Z,17.97
2022-09-15T23:10:28.211Z,17.96
2022-09-15T23:12:54.637Z,18.00
2022-09-15T23:15:21.062Z,18.02
2022-09-15T23:17:47.935Z,18.04
2022-09-15T23:20:14.424Z,18.12
2022-09-15T23:22:40.859Z,18.03
2022-09-15T23:25:07.701Z,18.01
2022-09-15T23:27:34.314Z,17.95
2022-09-15T23:30:00.793Z,17.96
2022-09-15T23:32:27.298Z,17.96
2022-09-15T23:34:53.754Z,17.94
2022-09-15T23:37:20.190Z,17.92
2022-09-15T23:39:46.682Z,17.98
2022-09-15T23:42:18.100Z,17.97
2022-09-15T23:44:45.272Z,17.88
2022-09-15T23:47:11.740Z,17.88
2022-09-15T23:49:38.269Z,17.97
2022-09-15T23:52:04.719Z,17.98
2022-09-15T23:54:31.183Z,17.94
2022-09-15T23:56:57.675Z,17.89
2022-09-15T23:59:24.149Z,17.81
